This is the latest recevied weather packets stored in our database for station/object W1RCY. If no packets are shown the sender has not sent any weather packets the latest 10 day(s).
| Time | Temp. | Humidity | Pressure | Rain* | Wind** | Luminosity | Snow |
|---|---|---|---|---|---|---|---|
| 1777470919 | 9.44° C | 82% | 1016.7 hPa | 0 mm | - | 323 W/m² | - |
| 1777470616 | 9.44° C | 81% | 1016.9 hPa | 0 mm | - | 286 W/m² | - |
| 1777470312 | 9.44° C | 82% | 1016.7 hPa | 0 mm | - | 294 W/m² | - |
| 1777470008 | 9.44° C | 82% | 1016.7 hPa | 0 mm | - | 273 W/m² | - |
| 1777469704 | 8.89° C | 84% | 1016.9 hPa | 0 mm | - | 248 W/m² | - |
| 1777469401 | 8.89° C | 82% | 1017.1 hPa | 0 mm | - | 222 W/m² | - |
| 1777469101 | 8.89° C | 82% | 1017.1 hPa | 0 mm | - | 218 W/m² | - |
| 1777468795 | 8.89° C | 83% | 1017.1 hPa | 0 mm | - | 180 W/m² | - |
| 1777468492 | 8.89° C | 81% | 1017 hPa | 0 mm | - | 211 W/m² | - |
| 1777468189 | 8.89° C | 83% | 1017 hPa | 0 mm | - | 193 W/m² | - |
| 1777467885 | 8.89° C | 81% | 1017.2 hPa | 0 mm | - | 186 W/m² | - |
| 1777467580 | 8.33° C | 83% | 1017.1 hPa | 0 mm | - | 205 W/m² | - |
| 1777467276 | 8.33° C | 82% | 1017 hPa | 0 mm | - | 211 W/m² | - |
| 1777466972 | 8.33° C | 83% | 1016.7 hPa | 0 mm | - | 219 W/m² | - |
| 1777466670 | 7.78° C | 84% | 1017 hPa | 0 mm | - | 185 W/m² | - |
| 1777466367 | 7.78° C | 84% | 1017 hPa | 0 mm | - | 160 W/m² | - |
| 1777466063 | 7.78° C | 84% | 1017.2 hPa | 0 mm | - | 141 W/m² | - |
| 1777465760 | 7.78° C | 84% | 1017.4 hPa | 0 mm | - | 123 W/m² | - |
| 1777465456 | 7.78° C | 84% | 1017.3 hPa | 0 mm | - | 128 W/m² | - |
| 1777465154 | 7.78° C | 84% | 1017.4 hPa | 0 mm | - | 119 W/m² | - |
| 1777464850 | 7.78° C | 85% | 1017.4 hPa | 0 mm | - | 119 W/m² | - |
| 1777464546 | 7.78° C | 85% | 1017.3 hPa | 0 mm | - | 127 W/m² | - |
| 1777464241 | 7.78° C | 86% | 1017.4 hPa | 0 mm | - | 108 W/m² | - |
| 1777463936 | 7.78° C | 85% | 1017.3 hPa | 0 mm | - | 103 W/m² | - |
| 1777463632 | 7.22° C | 86% | 1017.3 hPa | 0 mm | - | 96 W/m² | - |
* Rain latest hour (hover to see other rain measurements)
** Current wind speed in m/s (hover to see current wind gust speed)